createdAt,value
2019-04-16T00:00:00.662Z,8
2019-04-16T00:00:51.274Z,8
2019-04-16T00:01:46.606Z,8
2019-04-16T00:02:31.494Z,7.9
2019-04-16T00:03:26.245Z,7.9
2019-04-16T00:04:11.246Z,7.9
2019-04-16T00:05:01.800Z,7.9
2019-04-16T00:05:51.364Z,7.9
2019-04-16T00:06:41.159Z,7.9
2019-04-16T00:07:31.479Z,7.8
2019-04-16T00:08:30.636Z,7.8
2019-04-16T00:09:11.593Z,7.8
2019-04-16T00:10:01.967Z,7.8
2019-04-16T00:10:51.808Z,7.8
2019-04-16T00:11:42.071Z,7.7
2019-04-16T00:12:31.563Z,7.8
2019-04-16T00:13:21.929Z,7.7
2019-04-16T00:14:11.420Z,7.7
2019-04-16T00:15:02.208Z,7.7
2019-04-16T00:15:52.366Z,7.6
2019-04-16T00:16:47.170Z,7.6
2019-04-16T00:17:32.493Z,7.6
2019-04-16T00:18:22.591Z,7.6
2019-04-16T00:19:12.080Z,7.6
2019-04-16T00:20:08.433Z,7.6
2019-04-16T00:20:52.740Z,7.5
2019-04-16T00:21:43.468Z,7.5
2019-04-16T00:22:32.870Z,7.5
2019-04-16T00:23:22.923Z,7.4
2019-04-16T00:24:13.004Z,7.4
2019-04-16T00:25:03.099Z,7.4
2019-04-16T00:25:58.690Z,7.4
2019-04-16T00:26:42.903Z,7.4
2019-04-16T00:27:33.232Z,7.4
2019-04-16T00:28:22.727Z,7.3
2019-04-16T00:29:13.352Z,7.3
2019-04-16T00:30:08.287Z,7.3
2019-04-16T00:30:52.949Z,7.3
2019-04-16T00:31:43.534Z,7.3
2019-04-16T00:32:33.615Z,7.2
2019-04-16T00:33:22.817Z,7.2
2019-04-16T00:34:16.676Z,7.2
2019-04-16T00:35:04.159Z,7.2
2019-04-16T00:35:53.832Z,7.2
2019-04-16T00:36:48.381Z,7.2
2019-04-16T00:37:33.979Z,7.2
2019-04-16T00:38:39.651Z,7.2
2019-04-16T00:39:14.094Z,7.1
2019-04-16T00:40:04.464Z,7.2
2019-04-16T00:40:54.215Z,7.2
2019-04-16T00:41:44.042Z,7.1
2019-04-16T00:42:34.337Z,7.1
2019-04-16T00:43:24.388Z,7.1
2019-04-16T00:44:13.898Z,7.1
2019-04-16T00:45:04.704Z,7.1
2019-04-16T00:45:54.576Z,7
2019-04-16T00:46:44.089Z,6.9
2019-04-16T00:47:34.159Z,6.9
2019-04-16T00:48:24.484Z,6.9
2019-04-16T00:49:14.373Z,6.9
2019-04-16T00:50:04.926Z,6.9
2019-04-16T00:50:54.719Z,7
2019-04-16T00:51:44.471Z,7.1
2019-04-16T00:52:39.565Z,7.1
2019-04-16T00:53:24.833Z,7.1
2019-04-16T00:54:14.368Z,7.1
2019-04-16T00:55:04.831Z,7.1
2019-04-16T00:55:54.201Z,7
2019-04-16T00:56:49.971Z,7
2019-04-16T00:57:35.203Z,7
2019-04-16T00:58:24.948Z,7.1
2019-04-16T00:59:14.988Z,7
2019-04-16T01:00:05.693Z,7
2019-04-16T01:00:55.156Z,6.9
2019-04-16T01:01:45.728Z,7
2019-04-16T01:02:35.530Z,6.9
2019-04-16T01:03:25.308Z,7
2019-04-16T01:04:15.661Z,6.9
2019-04-16T01:05:05.725Z,6.9
2019-04-16T01:05:55.763Z,6.9
2019-04-16T01:06:45.822Z,6.9
2019-04-16T01:07:35.602Z,6.9
2019-04-16T01:08:25.959Z,6.9
2019-04-16T01:09:16.015Z,7
2019-04-16T01:10:06.064Z,6.9
2019-04-16T01:10:56.525Z,6.9
2019-04-16T01:11:51.942Z,6.9
2019-04-16T01:12:36.311Z,6.9
2019-04-16T01:13:27.807Z,6.9
2019-04-16T01:14:16.373Z,6.9
2019-04-16T01:15:06.587Z,6.9
2019-04-16T01:15:56.594Z,6.9
2019-04-16T01:16:46.577Z,6.9
2019-04-16T01:17:38.965Z,6.9
2019-04-16T01:18:26.402Z,6.9
2019-04-16T01:19:16.480Z,6.9
2019-04-16T01:20:13.069Z,6.9
2019-04-16T01:20:56.846Z,6.9
2019-04-16T01:21:48.047Z,6.9
2019-04-16T01:22:36.724Z,6.9
2019-04-16T01:23:27.331Z,6.9
2019-04-16T01:24:22.770Z,6.9
2019-04-16T01:25:07.184Z,6.9
2019-04-16T01:25:59.358Z,6.9
2019-04-16T01:26:47.571Z,6.9
2019-04-16T01:27:37.082Z,6.9
2019-04-16T01:28:33.189Z,6.9
2019-04-16T01:29:17.194Z,6.9
2019-04-16T01:30:09.351Z,6.9
2019-04-16T01:30:58.114Z,6.8
2019-04-16T01:31:47.650Z,6.8
2019-04-16T01:32:37.441Z,6.8
2019-04-16T01:33:27.856Z,6.8
2019-04-16T01:34:21.057Z,6.8
2019-04-16T01:35:22.843Z,6.9
2019-04-16T01:35:57.907Z,6.8
2019-04-16T01:36:48.306Z,6.9
2019-04-16T01:37:37.560Z,6.9
2019-04-16T01:38:31.426Z,6.9
2019-04-16T01:39:20.861Z,6.8
2019-04-16T01:40:08.553Z,6.8
2019-04-16T01:40:58.077Z,6.8
2019-04-16T01:41:53.908Z,6.8
2019-04-16T01:42:38.735Z,6.8
2019-04-16T01:43:29.370Z,6.8
2019-04-16T01:44:18.018Z,6.8
2019-04-16T01:45:08.943Z,6.8
2019-04-16T01:46:04.578Z,6.8
2019-04-16T01:46:48.488Z,6.8
2019-04-16T01:47:39.895Z,6.7
2019-04-16T01:48:29.145Z,6.7
2019-04-16T01:49:19.208Z,6.8
2019-04-16T01:50:14.617Z,6.8
2019-04-16T01:50:59.261Z,6.8
2019-04-16T01:51:50.420Z,6.7
2019-04-16T01:52:39.502Z,6.7
2019-04-16T01:53:29.260Z,6.7
2019-04-16T01:54:24.815Z,6.7
2019-04-16T01:55:09.881Z,6.8
2019-04-16T01:56:01.053Z,6.8
2019-04-16T01:56:49.209Z,6.7
2019-04-16T01:57:39.547Z,6.6
2019-04-16T01:58:35.178Z,6.7
2019-04-16T01:59:19.954Z,6.7
2019-04-16T02:00:11.518Z,6.7
2019-04-16T02:01:00.157Z,6.7
2019-04-16T02:01:49.607Z,6.6
2019-04-16T02:02:40.285Z,6.6
2019-04-16T02:03:30.338Z,6.6
2019-04-16T02:04:23.042Z,6.6
2019-04-16T02:05:10.444Z,6.7
2019-04-16T02:06:00.649Z,6.6
2019-04-16T02:06:50.249Z,6.6
2019-04-16T02:07:40.106Z,6.6
2019-04-16T02:08:33.933Z,6.6
2019-04-16T02:09:25.652Z,6.6
2019-04-16T02:10:10.911Z,6.6
2019-04-16T02:11:00.777Z,6.6
2019-04-16T02:11:50.357Z,6.6
2019-04-16T02:12:46.014Z,6.6
2019-04-16T02:13:30.983Z,6.6
2019-04-16T02:14:24.636Z,6.6
2019-04-16T02:15:11.236Z,6.6
2019-04-16T02:16:01.199Z,6.6
2019-04-16T02:16:56.713Z,6.6
2019-04-16T02:17:40.746Z,6.6
2019-04-16T02:18:33.192Z,6.6
2019-04-16T02:19:21.144Z,6.6
2019-04-16T02:20:11.643Z,6.6
2019-04-16T02:21:01.586Z,6.6
2019-04-16T02:21:51.606Z,6.6
2019-04-16T02:22:47.225Z,6.6
2019-04-16T02:23:31.719Z,6.5
2019-04-16T02:24:21.813Z,6.5
2019-04-16T02:25:11.953Z,6.5
2019-04-16T02:26:02.187Z,6.6
2019-04-16T02:26:56.992Z,6.5
2019-04-16T02:27:42.031Z,6.5
2019-04-16T02:28:31.818Z,6.5
2019-04-16T02:29:21.876Z,6.5
2019-04-16T02:30:12.273Z,6.5
2019-04-16T02:31:02.603Z,6.5
2019-04-16T02:31:55.254Z,6.5
2019-04-16T02:32:42.237Z,6.5
2019-04-16T02:33:32.540Z,6.5
2019-04-16T02:34:22.347Z,6.5
2019-04-16T02:35:11.866Z,6.5
2019-04-16T02:36:03.163Z,6.5
2019-04-16T02:36:52.469Z,6.5
2019-04-16T02:37:42.806Z,6.5
2019-04-16T02:38:32.866Z,6.5
2019-04-16T02:39:51.281Z,6.5
2019-04-16T02:40:20.897Z,6.5
2019-04-16T02:41:03.051Z,6.5
2019-04-16T02:42:01.302Z,6.5
2019-04-16T02:42:42.725Z,6.4
2019-04-16T02:43:42.324Z,6.5
2019-04-16T02:44:22.471Z,6.5
2019-04-16T02:45:13.863Z,6.4
2019-04-16T02:46:03.772Z,6.4
2019-04-16T02:46:53.430Z,6.4
2019-04-16T02:47:45.024Z,6.4
2019-04-16T02:48:33.590Z,6.4
2019-04-16T02:49:27.600Z,6.4
2019-04-16T02:50:12.745Z,6.4
2019-04-16T02:51:10.847Z,6.4
2019-04-16T02:51:53.539Z,6.4
2019-04-16T02:52:53.083Z,6.4
2019-04-16T02:53:33.952Z,6.3
2019-04-16T02:54:23.757Z,6.4
2019-04-16T02:55:14.747Z,6.3
2019-04-16T02:56:04.177Z,6.3
2019-04-16T02:56:55.629Z,6.3
2019-04-16T02:57:44.368Z,6.3
2019-04-16T02:58:37.855Z,6.3
2019-04-16T02:59:24.106Z,6.3
2019-04-16T03:00:19.564Z,6.3
2019-04-16T03:01:04.098Z,6.3
2019-04-16T03:01:55.417Z,6.2
2019-04-16T03:02:44.621Z,6.2
2019-04-16T03:03:34.396Z,6.2
2019-04-16T03:07:05.272Z,6.1
2019-04-16T03:07:49.381Z,6.1
2019-04-16T03:08:39.039Z,6.1
2019-04-16T03:09:29.776Z,6.1
2019-04-16T03:10:19.831Z,6.1
2019-04-16T03:11:10.174Z,6.1
2019-04-16T03:11:59.141Z,6.1
2019-04-16T03:12:55.373Z,6.1
2019-04-16T03:13:40.086Z,6.1
2019-04-16T03:14:32.998Z,6.1
2019-04-16T03:15:19.951Z,6.1
2019-04-16T03:16:10.674Z,6.1
2019-04-16T03:16:59.788Z,6.1
2019-04-16T03:17:49.844Z,6.1
2019-04-16T03:18:40.156Z,6.1
2019-04-16T03:19:30.508Z,6.1
2019-04-16T03:20:27.066Z,6.1
2019-04-16T03:21:10.942Z,6.1
2019-04-16T03:22:05.732Z,6
2019-04-16T03:22:50.730Z,6
2019-04-16T03:23:40.811Z,5.9
2019-04-16T03:24:30.315Z,6
2019-04-16T03:25:20.195Z,6
2019-04-16T03:26:10.583Z,6
2019-04-16T03:27:04.237Z,6
2019-04-16T03:27:56.926Z,5.9
2019-04-16T03:28:40.895Z,5.9
2019-04-16T03:29:34.063Z,5.9
2019-04-16T03:30:21.081Z,5.9
2019-04-16T03:31:25.552Z,5.9
2019-04-16T03:32:02.205Z,5.9
2019-04-16T03:32:51.795Z,5.9
2019-04-16T03:33:53.318Z,5.9
2019-04-16T03:34:31.610Z,5.9
2019-04-16T03:35:27.857Z,5.9
2019-04-16T03:36:11.686Z,5.9
2019-04-16T03:37:05.570Z,5.9
2019-04-16T03:37:51.563Z,5.9
2019-04-16T03:38:45.001Z,5.9
2019-04-16T03:39:31.692Z,5.9
2019-04-16T03:40:28.585Z,5.9
2019-04-16T03:41:12.402Z,5.9
2019-04-16T03:42:02.136Z,5.9
2019-04-16T03:42:52.215Z,5.9
2019-04-16T03:43:41.710Z,5.9
2019-04-16T03:44:38.482Z,5.9
2019-04-16T03:45:22.421Z,5.9
2019-04-16T03:46:16.584Z,5.9
2019-04-16T03:47:01.970Z,5.8
2019-04-16T03:47:54.906Z,5.8
2019-04-16T03:48:42.336Z,5.9
2019-04-16T03:49:32.143Z,5.9
2019-04-16T03:50:22.499Z,5.8
2019-04-16T03:51:12.876Z,5.8
2019-04-16T03:52:09.962Z,5.9
2019-04-16T03:52:52.671Z,5.8
2019-04-16T03:53:42.981Z,5.8
2019-04-16T03:54:32.778Z,5.9
2019-04-16T03:55:28.956Z,5.8
2019-04-16T03:56:13.372Z,5.8
2019-04-16T03:57:05.524Z,5.9
2019-04-16T03:57:53.024Z,5.9
2019-04-16T03:58:42.795Z,5.9
2019-04-16T03:59:33.432Z,5.9
2019-04-16T04:00:23.186Z,5.9
2019-04-16T04:01:17.771Z,5.9
2019-04-16T04:02:03.693Z,5.9
2019-04-16T04:02:57.885Z,5.8
2019-04-16T04:03:42.886Z,5.8
2019-04-16T04:04:33.526Z,5.8
2019-04-16T04:05:23.575Z,5.9
2019-04-16T04:06:13.940Z,5.9
2019-04-16T04:07:03.473Z,5.9
2019-04-16T04:07:57.415Z,5.9
2019-04-16T04:08:53.555Z,5.9
2019-04-16T04:09:33.855Z,5.9
2019-04-16T04:10:39.615Z,5.9
2019-04-16T04:11:14.270Z,5.9
2019-04-16T04:12:03.863Z,5.9
2019-04-16T04:12:54.141Z,5.9
2019-04-16T04:13:44.185Z,5.9
2019-04-16T04:14:34.530Z,5.9
2019-04-16T04:15:29.702Z,6
2019-04-16T04:16:14.710Z,6
2019-04-16T04:17:09.916Z,6
2019-04-16T04:17:54.760Z,6.1
2019-04-16T04:18:46.453Z,6
2019-04-16T04:19:34.886Z,6.1
2019-04-16T04:20:23.822Z,6.1
2019-04-16T04:21:14.482Z,6.1
2019-04-16T04:22:04.234Z,6.1
2019-04-16T04:23:00.054Z,6.1
2019-04-16T04:23:44.934Z,6.1
2019-04-16T04:24:34.712Z,6.1
2019-04-16T04:25:25.329Z,6.1
2019-04-16T04:26:15.226Z,6.1
2019-04-16T04:27:05.444Z,6.1
2019-04-16T04:27:55.474Z,6.2
2019-04-16T04:28:44.987Z,6.2
2019-04-16T04:29:35.635Z,6.3
2019-04-16T04:30:31.818Z,6.3
2019-04-16T04:31:15.689Z,6.3
2019-04-16T04:32:06.966Z,6.3
2019-04-16T04:32:55.853Z,6.3
2019-04-16T04:33:45.817Z,6.3
2019-04-16T04:34:35.946Z,6.3
2019-04-16T04:35:26.114Z,6.4
2019-04-16T04:36:22.661Z,6.4
2019-04-16T04:37:05.889Z,6.4
2019-04-16T04:37:56.206Z,6.4
2019-04-16T04:38:46.025Z,6.4
2019-04-16T04:39:36.516Z,6.5
2019-04-16T04:40:26.421Z,6.6
2019-04-16T04:41:16.526Z,6.6
2019-04-16T04:42:06.726Z,6.7
2019-04-16T04:43:03.062Z,6.8
2019-04-16T04:43:46.821Z,6.7
2019-04-16T04:44:39.656Z,6.8
2019-04-16T04:45:26.781Z,6.8
2019-04-16T04:46:18.704Z,6.8
2019-04-16T04:47:06.873Z,6.9
2019-04-16T04:47:56.658Z,6.9
2019-04-16T04:48:46.448Z,6.9
2019-04-16T04:49:36.500Z,6.8
2019-04-16T04:50:26.345Z,6.8
2019-04-16T04:51:16.845Z,6.9
2019-04-16T04:52:07.215Z,7
2019-04-16T04:52:57.288Z,7
2019-04-16T04:53:53.320Z,7.1
2019-04-16T04:54:37.140Z,7.2
2019-04-16T04:55:29.590Z,7.3
2019-04-16T04:56:21.653Z,7.1
2019-04-16T04:57:07.337Z,6.9
2019-04-16T04:57:57.100Z,6.9
2019-04-16T04:58:47.715Z,6.8
2019-04-16T04:59:39.680Z,6.7
2019-04-16T05:00:27.839Z,6.8
2019-04-16T05:01:17.831Z,6.9
2019-04-16T05:02:07.140Z,6.9
2019-04-16T05:02:57.207Z,6.9
2019-04-16T05:03:51.057Z,6.8
2019-04-16T05:04:37.862Z,6.9
2019-04-16T05:05:28.602Z,7
2019-04-16T05:06:18.268Z,6.9
2019-04-16T05:07:08.084Z,6.8
2019-04-16T05:08:02.627Z,6.8
2019-04-16T05:08:47.974Z,6.9
2019-04-16T05:09:39.711Z,6.9
2019-04-16T05:10:27.474Z,6.9
2019-04-16T05:11:19.645Z,6.9
2019-04-16T05:12:10.880Z,6.9
2019-04-16T05:12:58.196Z,7.1
2019-04-16T05:13:48.579Z,7.1
2019-04-16T05:14:38.895Z,7.3
2019-04-16T05:15:32.526Z,7.3
2019-04-16T05:16:18.480Z,7.4
2019-04-16T05:17:09.822Z,7.4
2019-04-16T05:17:59.109Z,7.4
2019-04-16T05:18:48.346Z,7.4
2019-04-16T05:19:38.959Z,7.4
2019-04-16T05:20:32.786Z,7.4
2019-04-16T05:21:21.811Z,7.4
2019-04-16T05:22:08.847Z,7.4
2019-04-16T05:23:00.731Z,7.4
2019-04-16T05:23:49.524Z,7.4
2019-04-16T05:24:40.755Z,7.4
2019-04-16T05:25:35.634Z,7.5
2019-04-16T05:26:19.558Z,7.6
2019-04-16T05:27:12.171Z,7.6
2019-04-16T05:27:59.826Z,7.7
2019-04-16T05:28:49.928Z,7.7
2019-04-16T05:29:39.663Z,7.8
2019-04-16T05:30:29.453Z,7.8
2019-04-16T05:31:26.152Z,7.9
2019-04-16T05:32:10.121Z,7.9
2019-04-16T05:33:02.409Z,7.9
2019-04-16T05:33:50.271Z,7.9
2019-04-16T05:34:40.895Z,7.9
2019-04-16T05:35:29.295Z,7.8
2019-04-16T05:36:24.468Z,7.7
2019-04-16T05:37:10.608Z,7.6
2019-04-16T05:37:59.753Z,7.6
2019-04-16T05:38:55.435Z,7.4
2019-04-16T05:39:40.405Z,7.4
2019-04-16T05:40:37.527Z,7.4
2019-04-16T05:41:25.516Z,7.4
2019-04-16T05:42:10.325Z,7.6
2019-04-16T05:43:01.817Z,7.5
2019-04-16T05:43:50.172Z,7.4
2019-04-16T05:44:40.790Z,7.5
2019-04-16T05:45:30.892Z,7.5
2019-04-16T05:46:20.677Z,7.3
2019-04-16T05:47:11.096Z,7.4
2019-04-16T05:48:00.863Z,7.6
2019-04-16T05:48:56.604Z,7.7
2019-04-16T05:49:41.423Z,7.7
2019-04-16T05:50:32.847Z,7.6
2019-04-16T05:51:21.553Z,7.8
2019-04-16T05:52:11.579Z,8.1
2019-04-16T05:53:01.719Z,8.2
2019-04-16T05:53:50.884Z,8.3
2019-04-16T05:54:47.776Z,8.4
2019-04-16T05:55:31.291Z,8.1
2019-04-16T05:56:26.761Z,8.2
2019-04-16T05:57:11.674Z,8.2
2019-04-16T05:58:01.740Z,8.4
2019-04-16T05:58:51.256Z,8.6
2019-04-16T05:59:42.144Z,8.6
2019-04-16T06:00:31.927Z,8.5
2019-04-16T06:01:22.257Z,8.4
2019-04-16T06:02:19.580Z,8.5
2019-04-16T06:03:02.086Z,8.6
2019-04-16T06:04:59.258Z,8.8
2019-04-16T06:05:49.536Z,8.7
2019-04-16T06:06:39.573Z,8.6
2019-04-16T06:07:29.480Z,8.8
2019-04-16T06:08:19.483Z,9
2019-04-16T06:09:16.223Z,9.1
2019-04-16T06:09:59.856Z,9.3
2019-04-16T06:10:53.683Z,9.3
2019-04-16T06:11:39.988Z,9.4
2019-04-16T06:12:33.082Z,9.4
2019-04-16T06:13:19.881Z,9.3
2019-04-16T06:14:09.843Z,9.4
2019-04-16T06:14:59.733Z,9.4
2019-04-16T06:15:55.278Z,9.4
2019-04-16T06:16:39.791Z,9.6
2019-04-16T06:17:35.373Z,9.3
2019-04-16T06:18:21.334Z,9.1
2019-04-16T06:19:14.705Z,9.3
2019-04-16T06:20:00.025Z,9.3
2019-04-16T06:20:55.618Z,9.4
2019-04-16T06:21:40.382Z,9.6
2019-04-16T06:22:32.365Z,9.6
2019-04-16T06:23:19.538Z,9.8
2019-04-16T06:24:10.380Z,9.9
2019-04-16T06:25:08.145Z,10.1
2019-04-16T06:25:50.967Z,9.8
2019-04-16T06:26:40.777Z,9.7
2019-04-16T06:27:31.102Z,9.8
2019-04-16T06:28:20.657Z,9.9
2019-04-16T06:29:10.525Z,9.8
2019-04-16T06:30:05.122Z,9.9
2019-04-16T06:30:51.334Z,10.1
2019-04-16T06:31:42.849Z,10.1
2019-04-16T06:32:30.990Z,10.1
2019-04-16T06:33:21.254Z,10
2019-04-16T06:34:10.744Z,9.9
2019-04-16T06:35:01.079Z,9.9
2019-04-16T06:35:51.694Z,9.9
2019-04-16T06:36:41.790Z,10.1
2019-04-16T06:37:31.817Z,10.1
2019-04-16T06:38:21.668Z,9.9
2019-04-16T06:39:11.945Z,10
2019-04-16T06:40:04.284Z,10.1
2019-04-16T06:40:52.073Z,10.1
2019-04-16T06:41:53.968Z,9.9
2019-04-16T06:42:31.642Z,10
2019-04-16T06:43:28.808Z,10.2
2019-04-16T06:44:12.029Z,10.2
2019-04-16T06:45:08.317Z,10.3
2019-04-16T06:45:52.161Z,10.3
2019-04-16T06:46:43.401Z,10.3
2019-04-16T06:47:32.012Z,10.1
2019-04-16T06:48:21.916Z,9.9
2019-04-16T06:49:19.176Z,9.7
2019-04-16T06:50:02.779Z,9.4
2019-04-16T06:50:52.232Z,9.4
2019-04-16T06:51:47.198Z,9.7
2019-04-16T06:52:32.644Z,9.8
2019-04-16T06:53:30.921Z,9.8
2019-04-16T06:54:13.934Z,9.8
2019-04-16T06:55:06.566Z,9.8
2019-04-16T06:55:53.153Z,9.6
2019-04-16T06:56:43.686Z,9.6
2019-04-16T06:57:32.992Z,9.6
2019-04-16T06:58:27.204Z,9.7
2019-04-16T06:59:16.563Z,9.7
2019-04-16T07:00:09.327Z,9.8
2019-04-16T07:00:53.548Z,9.9
2019-04-16T07:01:44.940Z,10.1
2019-04-16T07:02:37.191Z,10.1
2019-04-16T07:05:04.220Z,10.4
2019-04-16T07:05:49.812Z,10.2
2019-04-16T07:06:40.058Z,10.3
2019-04-16T07:07:48.830Z,10.5
2019-04-16T07:08:21.793Z,10.7
2019-04-16T07:09:08.645Z,10.9
2019-04-16T07:10:00.342Z,11.1
2019-04-16T07:10:49.715Z,11.2
2019-04-16T07:11:39.911Z,11.3
2019-04-16T07:12:30.328Z,11.3
2019-04-16T07:13:19.717Z,11.3
2019-04-16T07:14:17.643Z,11.2
2019-04-16T07:14:59.602Z,11.3
2019-04-16T07:15:49.909Z,11.2
2019-04-16T07:16:40.242Z,11.4
2019-04-16T07:17:36.697Z,11.3
2019-04-16T07:18:23.582Z,11.1
2019-04-16T07:19:17.751Z,11.1
2019-04-16T07:20:00.280Z,10.6
2019-04-16T07:20:50.278Z,10.3
2019-04-16T07:21:40.098Z,10.4
2019-04-16T07:22:30.119Z,10.4
2019-04-16T07:23:27.462Z,10.3
2019-04-16T07:24:11.249Z,10.4
2019-04-16T07:25:08.873Z,10.6
2019-04-16T07:25:52.633Z,10.8
2019-04-16T07:26:50.767Z,10.9
2019-04-16T07:27:39.776Z,10.7
2019-04-16T07:28:28.029Z,10.6
2019-04-16T07:29:12.154Z,10.3
2019-04-16T07:30:11.761Z,10.4
2019-04-16T07:30:51.722Z,10.1
2019-04-16T07:31:41.835Z,10.1
2019-04-16T07:32:31.615Z,10.5
2019-04-16T07:33:21.471Z,10.8
2019-04-16T07:34:10.856Z,11.2
2019-04-16T07:35:01.243Z,11.1
2019-04-16T07:35:51.651Z,11.1
2019-04-16T07:36:41.433Z,11.4
2019-04-16T07:37:35.696Z,11.4
2019-04-16T07:38:21.019Z,11.3
2019-04-16T07:39:30.784Z,11.8
2019-04-16T07:40:02.134Z,11.1
2019-04-16T07:40:52.018Z,10.8
2019-04-16T07:41:46.021Z,10.9
2019-04-16T07:42:31.855Z,11.1
2019-04-16T07:43:57.242Z,11.4
2019-04-16T07:44:45.324Z,11.5
2019-04-16T07:45:35.127Z,11.3
2019-04-16T07:46:25.183Z,11.6
2019-04-16T07:47:21.310Z,10.8
2019-04-16T07:48:09.628Z,10.8
2019-04-16T07:48:58.473Z,11.1
2019-04-16T07:50:01.975Z,11.4
2019-04-16T07:50:36.200Z,12
2019-04-16T07:51:25.815Z,11.9
2019-04-16T07:52:15.857Z,11.9
2019-04-16T07:53:06.110Z,11.9
2019-04-16T07:53:56.095Z,12.3
2019-04-16T07:54:45.770Z,12.1
2019-04-16T07:55:36.103Z,12.4
2019-04-16T07:56:25.898Z,12.8
2019-04-16T07:57:15.950Z,13.1
2019-04-16T07:58:06.388Z,13.4
2019-04-16T07:59:02.691Z,13.5
2019-04-16T07:59:46.221Z,13.2
2019-04-16T08:00:42.540Z,13.1
2019-04-16T08:01:25.732Z,13.2
2019-04-16T08:02:23.904Z,13.4
2019-04-16T08:03:07.421Z,13.3
2019-04-16T08:04:05.608Z,12.9
2019-04-16T08:04:46.510Z,12.8
2019-04-16T08:05:42.850Z,12.6
2019-04-16T08:06:26.908Z,12.4
2019-04-16T08:07:22.845Z,12.3
2019-04-16T08:08:07.278Z,12.4
2019-04-16T08:09:00.746Z,12.7
2019-04-16T08:09:46.871Z,12.9
2019-04-16T08:10:37.237Z,13
2019-04-16T08:11:26.987Z,13.1
2019-04-16T08:12:32.976Z,13.2
2019-04-16T08:13:06.949Z,13.1
2019-04-16T08:13:57.761Z,13.1
2019-04-16T08:14:47.505Z,13.2
2019-04-16T08:15:37.709Z,13.5
2019-04-16T08:16:27.634Z,13.9
2019-04-16T08:17:17.477Z,13.6
2019-04-16T08:18:07.836Z,13.6
2019-04-16T08:18:57.083Z,13.6
2019-04-16T08:19:56.058Z,13.8
2019-04-16T08:20:37.694Z,14
2019-04-16T08:21:27.717Z,14.3
2019-04-16T08:22:19.670Z,14.7
2019-04-16T08:23:08.123Z,14.9
2019-04-16T08:23:58.232Z,14.7
2019-04-16T08:24:47.481Z,14.8
2019-04-16T08:25:37.764Z,15
2019-04-16T08:26:28.095Z,15.2
2019-04-16T08:27:21.900Z,15.2
2019-04-16T08:28:10.399Z,15.1
2019-04-16T08:28:58.957Z,14.9
2019-04-16T08:29:47.517Z,15.3
2019-04-16T08:30:42.067Z,15.4
2019-04-16T08:31:28.169Z,15.4
2019-04-16T08:32:19.284Z,15.4
2019-04-16T08:33:12.757Z,15.8
2019-04-16T08:33:58.557Z,15.6
2019-04-16T08:34:48.775Z,15.9
2019-04-16T08:35:38.754Z,16.1
2019-04-16T08:36:28.259Z,16.3
2019-04-16T08:37:19.171Z,16.1
2019-04-16T08:38:09.211Z,15.6
2019-04-16T08:38:59.364Z,15
2019-04-16T08:39:49.338Z,14.7
2019-04-16T08:40:39.116Z,14.5
2019-04-16T08:41:29.191Z,14.2
2019-04-16T08:42:21.525Z,14
2019-04-16T08:43:09.723Z,13.4
2019-04-16T08:44:10.863Z,13.6
2019-04-16T08:44:49.750Z,14.2
2019-04-16T08:45:42.841Z,14.4
2019-04-16T08:46:30.568Z,14.1
2019-04-16T08:47:19.884Z,14.4
2019-04-16T08:48:19.838Z,14.7
2019-04-16T08:49:00.000Z,15.1
2019-04-16T08:49:56.720Z,15.3
2019-04-16T08:50:39.571Z,15.4
2019-04-16T08:51:39.894Z,15.4
2019-04-16T08:52:20.295Z,15.4
2019-04-16T08:53:16.069Z,15.3
2019-04-16T08:54:00.243Z,15.6
2019-04-16T08:54:56.858Z,15.7
2019-04-16T08:55:40.541Z,15.6
2019-04-16T08:56:30.553Z,15.6
2019-04-16T08:57:20.347Z,15.4
2019-04-16T08:58:14.153Z,15.2
2019-04-16T08:59:09.422Z,15.1
2019-04-16T08:59:50.258Z,15.1
2019-04-16T09:00:45.883Z,15.3
2019-04-16T09:01:30.603Z,15.7
2019-04-16T09:02:23.454Z,15.8
2019-04-16T09:03:10.632Z,15.9
2019-04-16T09:04:05.649Z,16.6
2019-04-16T09:04:50.045Z,16.8
2019-04-16T09:05:44.557Z,16.4
2019-04-16T09:06:30.755Z,15.7
2019-04-16T09:07:23.632Z,14.9
2019-04-16T09:08:16.087Z,14.9
2019-04-16T09:09:27.155Z,13.8
2019-04-16T09:09:56.935Z,13.4
2019-04-16T09:10:44.474Z,13.5
2019-04-16T09:11:37.047Z,13.5
2019-04-16T09:12:22.085Z,13.3
2019-04-16T09:13:11.544Z,12.9
2019-04-16T09:14:01.277Z,13
2019-04-16T09:14:58.984Z,12.8
2019-04-16T09:15:41.687Z,13.4
2019-04-16T09:16:31.778Z,13.4
2019-04-16T09:17:21.539Z,13.9
2019-04-16T09:18:11.607Z,13.8
2019-04-16T09:19:01.372Z,14.4
2019-04-16T09:19:51.727Z,15
2019-04-16T09:20:42.326Z,15.2
2019-04-16T09:21:32.139Z,15.1
2019-04-16T09:22:22.182Z,14.9
2019-04-16T09:23:12.634Z,15.3
2019-04-16T09:24:12.085Z,15.3
2019-04-16T09:24:52.657Z,15.7
2019-04-16T09:25:48.574Z,15.8
2019-04-16T09:26:47.194Z,16.5
2019-04-16T09:27:22.539Z,16.9
2019-04-16T09:28:32.611Z,16.8
2019-04-16T09:29:12.314Z,16.7
2019-04-16T09:31:32.603Z,17.4
2019-04-16T09:32:29.442Z,17.4
2019-04-16T09:33:12.889Z,17.6
2019-04-16T09:34:09.648Z,17.9
2019-04-16T09:34:53.462Z,18
2019-04-16T09:35:46.527Z,18.1
2019-04-16T09:36:32.658Z,17.9
2019-04-16T09:37:29.833Z,17.8
2019-04-16T09:38:15.683Z,17.6
2019-04-16T09:39:03.797Z,17.1
2019-04-16T09:39:53.736Z,17.1
2019-04-16T09:40:43.533Z,16.9
2019-04-16T09:41:34.110Z,15.7
2019-04-16T09:42:23.668Z,15.1
2019-04-16T09:43:21.059Z,15.3
2019-04-16T09:44:03.776Z,14.6
2019-04-16T09:44:53.830Z,14.1
2019-04-16T09:45:43.935Z,13.9
2019-04-16T09:47:00.544Z,14
2019-04-16T09:47:24.257Z,14.3
2019-04-16T09:48:14.245Z,14.3
2019-04-16T09:49:08.670Z,14.4
2019-04-16T09:49:54.177Z,15.1
2019-04-16T09:50:50.545Z,14.8
2019-04-16T09:51:34.315Z,14.5
2019-04-16T09:52:26.745Z,15.3
2019-04-16T09:53:15.158Z,15.2
2019-04-16T09:54:04.835Z,15.6
2019-04-16T09:54:54.555Z,15.9
2019-04-16T09:55:47.492Z,16.4
2019-04-16T09:56:34.712Z,16.8
2019-04-16T09:59:04.881Z,16.6
2019-04-16T09:59:54.909Z,15.9
2019-04-16T10:00:47.563Z,15.8
2019-04-16T10:01:35.064Z,15.4
2019-04-16T10:02:25.124Z,15.6
2019-04-16T10:03:15.705Z,16
2019-04-16T10:04:05.227Z,16.2
2019-04-16T10:05:59.266Z,16.2
2019-04-16T10:06:49.246Z,16.3
2019-04-16T10:07:43.389Z,16.3
2019-04-16T10:08:32.204Z,16.4
2019-04-16T10:09:25.464Z,16.4
2019-04-16T10:10:09.360Z,15.9
2019-04-16T10:11:08.569Z,15.5
2019-04-16T10:11:49.881Z,15.1
2019-04-16T10:12:39.855Z,15.3
2019-04-16T10:13:38.534Z,15.4
2019-04-16T10:14:20.154Z,15.7
2019-04-16T10:15:09.922Z,15.9
2019-04-16T10:16:00.109Z,16
2019-04-16T10:16:49.845Z,16.1
2019-04-16T10:17:39.886Z,16.1
2019-04-16T10:18:36.588Z,16.3
2019-04-16T10:19:24.343Z,16.4
2019-04-16T10:20:10.331Z,16.6
2019-04-16T10:20:59.872Z,16.2
2019-04-16T10:21:56.970Z,16.1
2019-04-16T10:22:40.651Z,16.4
2019-04-16T10:23:30.679Z,16.3
2019-04-16T10:24:20.578Z,16.3
2019-04-16T10:25:10.721Z,16.3
2019-04-16T10:26:00.488Z,15.8
2019-04-16T10:26:50.589Z,15.4
2019-04-16T10:27:40.678Z,15.8
2019-04-16T10:28:30.657Z,15.3
2019-04-16T10:29:21.443Z,15.2
2019-04-16T10:30:10.805Z,15.1
2019-04-16T10:31:01.213Z,15.3
2019-04-16T10:31:51.233Z,15.8
2019-04-16T10:32:41.252Z,16.1
2019-04-16T10:33:31.077Z,16.3
2019-04-16T10:34:21.542Z,16.1
2019-04-16T10:35:11.158Z,16.3
2019-04-16T10:36:08.388Z,16.3
2019-04-16T10:36:50.955Z,16.1
2019-04-16T10:37:41.649Z,16.4
2019-04-16T10:38:31.783Z,16.6
2019-04-16T10:39:22.175Z,16.7
2019-04-16T10:40:11.893Z,16.8
2019-04-16T10:41:01.850Z,16.9
2019-04-16T10:42:42.094Z,16.9
2019-04-16T10:43:46.462Z,16.8
2019-04-16T10:44:21.626Z,16.3
2019-04-16T10:45:12.034Z,16.1
2019-04-16T10:46:02.287Z,16.4
2019-04-16T10:46:52.090Z,16.3
2019-04-16T10:47:41.907Z,15.8
2019-04-16T10:48:32.496Z,16.4
2019-04-16T10:49:21.977Z,16.6
2019-04-16T10:51:02.686Z,16.9
2019-04-16T10:51:52.479Z,15.5
2019-04-16T10:52:42.579Z,15.3
2019-04-16T10:53:32.305Z,15.5
2019-04-16T10:54:22.320Z,15.3
2019-04-16T10:55:18.574Z,15.1
2019-04-16T10:56:03.119Z,15.3
2019-04-16T10:56:59.595Z,15.1
2019-04-16T10:57:42.819Z,15.9
2019-04-16T10:58:32.909Z,16.2
2019-04-16T10:59:22.949Z,16.3
2019-04-16T11:00:12.778Z,16.6
2019-04-16T11:01:03.373Z,16.6
2019-04-16T11:01:53.408Z,16.4
2019-04-16T11:02:42.725Z,16.5
2019-04-16T11:03:37.625Z,16.4
2019-04-16T11:04:23.721Z,16.3
2019-04-16T11:05:20.856Z,16.3
2019-04-16T11:06:03.543Z,16.2
2019-04-16T11:06:53.591Z,16
2019-04-16T11:07:44.073Z,16
2019-04-16T11:08:34.292Z,16
2019-04-16T11:09:24.066Z,16
2019-04-16T11:10:14.735Z,15.8
2019-04-16T11:11:03.889Z,15.6
2019-04-16T11:11:54.150Z,15.6
2019-04-16T11:12:44.210Z,15.6
2019-04-16T11:13:33.870Z,15
2019-04-16T11:14:23.781Z,14.4
2019-04-16T11:15:13.872Z,14
2019-04-16T11:16:04.045Z,13.9
2019-04-16T11:16:54.608Z,13.7
2019-04-16T11:17:44.420Z,13.6
2019-04-16T11:18:34.151Z,13.6
2019-04-16T11:19:23.854Z,13.6
2019-04-16T11:20:14.233Z,13.3
2019-04-16T11:21:04.999Z,13.1
2019-04-16T11:21:54.685Z,12.8
2019-04-16T11:22:44.366Z,12.7
2019-04-16T11:23:34.874Z,12.6
2019-04-16T11:24:25.175Z,12.5
2019-04-16T11:25:15.223Z,12.6
2019-04-16T11:26:05.364Z,12.6
2019-04-16T11:26:54.337Z,12.4
2019-04-16T11:27:45.194Z,12.4
2019-04-16T11:28:35.437Z,12.1
2019-04-16T11:29:25.387Z,11.9
2019-04-16T11:30:15.893Z,11.6
2019-04-16T11:31:06.139Z,11.4
2019-04-16T11:31:55.750Z,11.3
2019-04-16T11:32:45.429Z,11.2
2019-04-16T11:33:35.777Z,11.1